sensor_id;sensor_type;location;lat;lon;timestamp;P1;durP1;ratioP1;P2;durP2;ratioP2
54923;SDS011;40825;52.270;20.984;2023-02-28T00:00:46;24.00;;;11.10;;
54923;SDS011;40825;52.270;20.984;2023-02-28T00:03:17;26.20;;;12.20;;
54923;SDS011;40825;52.270;20.984;2023-02-28T00:05:43;30.80;;;13.50;;
54923;SDS011;40825;52.270;20.984;2023-02-28T00:08:08;35.30;;;13.10;;
54923;SDS011;40825;52.270;20.984;2023-02-28T00:10:35;32.10;;;14.80;;
54923;SDS011;40825;52.270;20.984;2023-02-28T00:13:02;36.00;;;15.60;;
54923;SDS011;40825;52.270;20.984;2023-02-28T00:15:30;33.90;;;14.10;;
54923;SDS011;40825;52.270;20.984;2023-02-28T00:17:57;33.50;;;14.10;;
54923;SDS011;40825;52.270;20.984;2023-02-28T00:20:22;32.70;;;14.00;;
54923;SDS011;40825;52.270;20.984;2023-02-28T00:22:49;29.20;;;13.40;;
54923;SDS011;40825;52.270;20.984;2023-02-28T00:25:17;31.50;;;13.70;;
54923;SDS011;40825;52.270;20.984;2023-02-28T00:27:45;29.80;;;13.40;;
54923;SDS011;40825;52.270;20.984;2023-02-28T00:30:12;30.10;;;13.80;;
54923;SDS011;40825;52.270;20.984;2023-02-28T00:32:40;30.10;;;13.20;;
54923;SDS011;40825;52.270;20.984;2023-02-28T00:35:06;29.40;;;12.20;;
54923;SDS011;40825;52.270;20.984;2023-02-28T00:37:33;32.30;;;13.90;;
54923;SDS011;40825;52.270;20.984;2023-02-28T00:39:58;34.60;;;14.10;;
54923;SDS011;40825;52.270;20.984;2023-02-28T00:42:24;32.30;;;14.30;;
54923;SDS011;40825;52.270;20.984;2023-02-28T00:44:49;32.50;;;13.30;;
54923;SDS011;40825;52.270;20.984;2023-02-28T00:47:15;33.80;;;13.80;;
54923;SDS011;40825;52.270;20.984;2023-02-28T00:49:41;33.60;;;14.40;;
54923;SDS011;40825;52.270;20.984;2023-02-28T00:52:06;28.50;;;13.70;;
54923;SDS011;40825;52.270;20.984;2023-02-28T00:54:32;29.50;;;12.80;;
54923;SDS011;40825;52.270;20.984;2023-02-28T00:56:58;29.30;;;13.20;;
54923;SDS011;40825;52.270;20.984;2023-02-28T00:59:23;29.10;;;11.40;;
54923;SDS011;40825;52.270;20.984;2023-02-28T01:01:49;24.90;;;11.00;;
54923;SDS011;40825;52.270;20.984;2023-02-28T01:04:15;28.80;;;11.70;;
54923;SDS011;40825;52.270;20.984;2023-02-28T01:06:41;23.50;;;11.20;;
54923;SDS011;40825;52.270;20.984;2023-02-28T01:09:07;26.00;;;9.80;;
54923;SDS011;40825;52.270;20.984;2023-02-28T01:11:33;25.50;;;11.00;;
54923;SDS011;40825;52.270;20.984;2023-02-28T01:14:00;26.90;;;10.50;;
54923;SDS011;40825;52.270;20.984;2023-02-28T01:16:26;25.80;;;10.40;;
54923;SDS011;40825;52.270;20.984;2023-02-28T01:18:52;24.70;;;10.40;;
54923;SDS011;40825;52.270;20.984;2023-02-28T01:21:18;25.10;;;10.60;;
54923;SDS011;40825;52.270;20.984;2023-02-28T01:23:45;23.90;;;10.60;;
54923;SDS011;40825;52.270;20.984;2023-02-28T01:26:16;23.60;;;10.10;;
54923;SDS011;40825;52.270;20.984;2023-02-28T01:28:43;28.00;;;12.40;;
54923;SDS011;40825;52.270;20.984;2023-02-28T01:31:08;31.10;;;13.00;;
54923;SDS011;40825;52.270;20.984;2023-02-28T01:33:35;28.80;;;13.10;;
54923;SDS011;40825;52.270;20.984;2023-02-28T01:36:05;27.70;;;12.40;;
54923;SDS011;40825;52.270;20.984;2023-02-28T01:38:34;29.80;;;11.80;;
54923;SDS011;40825;52.270;20.984;2023-02-28T01:40:59;26.30;;;12.30;;
54923;SDS011;40825;52.270;20.984;2023-02-28T01:43:26;28.80;;;14.30;;
54923;SDS011;40825;52.270;20.984;2023-02-28T01:45:54;28.70;;;13.60;;
54923;SDS011;40825;52.270;20.984;2023-02-28T01:48:25;27.90;;;12.30;;
54923;SDS011;40825;52.270;20.984;2023-02-28T01:50:52;27.90;;;12.90;;
54923;SDS011;40825;52.270;20.984;2023-02-28T01:53:24;32.10;;;13.20;;
54923;SDS011;40825;52.270;20.984;2023-02-28T01:55:57;31.90;;;13.00;;
54923;SDS011;40825;52.270;20.984;2023-02-28T01:58:23;34.50;;;13.70;;
54923;SDS011;40825;52.270;20.984;2023-02-28T02:00:49;26.00;;;12.80;;
54923;SDS011;40825;52.270;20.984;2023-02-28T02:03:16;23.00;;;11.10;;
54923;SDS011;40825;52.270;20.984;2023-02-28T02:05:45;30.00;;;11.70;;
54923;SDS011;40825;52.270;20.984;2023-02-28T02:08:24;27.60;;;11.50;;
54923;SDS011;40825;52.270;20.984;2023-02-28T02:10:54;31.60;;;13.80;;
54923;SDS011;40825;52.270;20.984;2023-02-28T02:13:28;26.20;;;12.80;;
54923;SDS011;40825;52.270;20.984;2023-02-28T02:15:59;26.70;;;12.00;;
54923;SDS011;40825;52.270;20.984;2023-02-28T02:18:33;28.20;;;11.90;;
54923;SDS011;40825;52.270;20.984;2023-02-28T02:37:11;27.20;;;12.80;;
54923;SDS011;40825;52.270;20.984;2023-02-28T02:39:48;28.90;;;12.50;;
54923;SDS011;40825;52.270;20.984;2023-02-28T02:48:42;26.20;;;13.10;;
54923;SDS011;40825;52.270;20.984;2023-02-28T02:51:11;27.60;;;11.60;;
54923;SDS011;40825;52.270;20.984;2023-02-28T02:53:46;28.90;;;14.60;;
54923;SDS011;40825;52.270;20.984;2023-02-28T02:56:15;28.30;;;11.80;;
54923;SDS011;40825;52.270;20.984;2023-02-28T02:58:45;31.30;;;13.80;;
54923;SDS011;40825;52.270;20.984;2023-02-28T03:03:53;28.70;;;13.10;;
54923;SDS011;40825;52.270;20.984;2023-02-28T03:06:25;28.10;;;12.90;;
54923;SDS011;40825;52.270;20.984;2023-02-28T03:08:51;27.50;;;11.70;;
54923;SDS011;40825;52.270;20.984;2023-02-28T03:11:17;28.30;;;12.90;;
54923;SDS011;40825;52.270;20.984;2023-02-28T03:16:27;29.80;;;12.00;;
54923;SDS011;40825;52.270;20.984;2023-02-28T03:21:46;32.20;;;13.90;;
54923;SDS011;40825;52.270;20.984;2023-02-28T03:24:30;34.60;;;15.00;;
54923;SDS011;40825;52.270;20.984;2023-02-28T03:27:16;30.10;;;13.70;;
54923;SDS011;40825;52.270;20.984;2023-02-28T03:29:50;35.70;;;15.60;;
54923;SDS011;40825;52.270;20.984;2023-02-28T03:32:40;29.80;;;13.80;;
54923;SDS011;40825;52.270;20.984;2023-02-28T03:35:20;35.40;;;14.10;;
54923;SDS011;40825;52.270;20.984;2023-02-28T03:37:55;37.70;;;14.00;;
54923;SDS011;40825;52.270;20.984;2023-02-28T03:40:30;35.30;;;14.50;;
54923;SDS011;40825;52.270;20.984;2023-02-28T03:42:59;32.00;;;13.80;;
54923;SDS011;40825;52.270;20.984;2023-02-28T03:45:35;30.20;;;14.30;;
54923;SDS011;40825;52.270;20.984;2023-02-28T03:50:48;38.50;;;16.10;;
54923;SDS011;40825;52.270;20.984;2023-02-28T03:56:19;33.90;;;15.50;;
54923;SDS011;40825;52.270;20.984;2023-02-28T04:01:15;40.20;;;17.20;;
54923;SDS011;40825;52.270;20.984;2023-02-28T04:03:49;44.30;;;15.90;;
54923;SDS011;40825;52.270;20.984;2023-02-28T04:06:16;37.30;;;17.20;;
54923;SDS011;40825;52.270;20.984;2023-02-28T04:08:44;38.30;;;16.40;;
54923;SDS011;40825;52.270;20.984;2023-02-28T04:11:22;37.70;;;17.20;;
54923;SDS011;40825;52.270;20.984;2023-02-28T04:13:52;36.10;;;15.70;;
54923;SDS011;40825;52.270;20.984;2023-02-28T04:16:18;38.10;;;16.10;;
54923;SDS011;40825;52.270;20.984;2023-02-28T04:18:43;42.80;;;19.80;;
54923;SDS011;40825;52.270;20.984;2023-02-28T04:21:09;43.30;;;18.00;;
54923;SDS011;40825;52.270;20.984;2023-02-28T04:23:35;43.30;;;20.00;;
54923;SDS011;40825;52.270;20.984;2023-02-28T04:26:01;44.40;;;17.90;;
54923;SDS011;40825;52.270;20.984;2023-02-28T04:28:26;49.00;;;19.70;;
54923;SDS011;40825;52.270;20.984;2023-02-28T04:30:56;42.60;;;19.30;;
54923;SDS011;40825;52.270;20.984;2023-02-28T04:33:23;40.10;;;16.80;;
54923;SDS011;40825;52.270;20.984;2023-02-28T04:35:57;42.90;;;18.90;;
54923;SDS011;40825;52.270;20.984;2023-02-28T04:38:27;41.50;;;18.00;;
54923;SDS011;40825;52.270;20.984;2023-02-28T04:40:56;46.00;;;19.40;;
54923;SDS011;40825;52.270;20.984;2023-02-28T04:43:23;45.60;;;20.40;;
54923;SDS011;40825;52.270;20.984;2023-02-28T04:45:48;43.80;;;17.60;;
54923;SDS011;40825;52.270;20.984;2023-02-28T04:48:13;38.30;;;18.00;;
54923;SDS011;40825;52.270;20.984;2023-02-28T04:50:39;46.00;;;18.60;;
54923;SDS011;40825;52.270;20.984;2023-02-28T04:53:04;44.00;;;19.20;;
54923;SDS011;40825;52.270;20.984;2023-02-28T04:55:30;41.50;;;20.10;;
54923;SDS011;40825;52.270;20.984;2023-02-28T04:57:56;40.80;;;17.80;;
54923;SDS011;40825;52.270;20.984;2023-02-28T05:00:23;37.30;;;18.00;;
54923;SDS011;40825;52.270;20.984;2023-02-28T05:02:48;45.90;;;17.40;;
54923;SDS011;40825;52.270;20.984;2023-02-28T05:08:11;46.40;;;20.00;;
54923;SDS011;40825;52.270;20.984;2023-02-28T05:10:38;46.50;;;20.10;;
54923;SDS011;40825;52.270;20.984;2023-02-28T05:13:05;45.90;;;19.10;;
54923;SDS011;40825;52.270;20.984;2023-02-28T05:15:30;46.20;;;20.00;;
54923;SDS011;40825;52.270;20.984;2023-02-28T05:17:56;44.20;;;19.10;;
54923;SDS011;40825;52.270;20.984;2023-02-28T05:20:21;52.20;;;20.60;;
54923;SDS011;40825;52.270;20.984;2023-02-28T05:22:47;43.90;;;19.50;;
54923;SDS011;40825;52.270;20.984;2023-02-28T05:25:13;48.00;;;21.40;;
54923;SDS011;40825;52.270;20.984;2023-02-28T05:27:43;41.50;;;19.40;;
54923;SDS011;40825;52.270;20.984;2023-02-28T05:30:08;45.90;;;19.40;;
54923;SDS011;40825;52.270;20.984;2023-02-28T05:32:39;42.80;;;19.30;;
54923;SDS011;40825;52.270;20.984;2023-02-28T05:35:08;43.70;;;18.30;;
54923;SDS011;40825;52.270;20.984;2023-02-28T05:37:35;45.80;;;19.60;;
54923;SDS011;40825;52.270;20.984;2023-02-28T05:40:02;41.80;;;18.10;;
54923;SDS011;40825;52.270;20.984;2023-02-28T05:44:57;41.50;;;16.80;;
54923;SDS011;40825;52.270;20.984;2023-02-28T05:47:22;42.50;;;18.40;;
54923;SDS011;40825;52.270;20.984;2023-02-28T05:49:48;39.90;;;17.20;;
54923;SDS011;40825;52.270;20.984;2023-02-28T05:52:13;41.10;;;17.50;;
54923;SDS011;40825;52.270;20.984;2023-02-28T05:54:38;45.20;;;19.50;;
54923;SDS011;40825;52.270;20.984;2023-02-28T05:57:05;43.10;;;20.20;;
54923;SDS011;40825;52.270;20.984;2023-02-28T05:59:31;47.90;;;20.30;;
54923;SDS011;40825;52.270;20.984;2023-02-28T06:01:57;42.70;;;20.90;;
54923;SDS011;40825;52.270;20.984;2023-02-28T06:04:22;41.30;;;20.70;;
54923;SDS011;40825;52.270;20.984;2023-02-28T06:06:48;42.50;;;20.00;;
54923;SDS011;40825;52.270;20.984;2023-02-28T06:09:14;40.40;;;18.90;;
54923;SDS011;40825;52.270;20.984;2023-02-28T06:11:41;37.70;;;20.70;;
54923;SDS011;40825;52.270;20.984;2023-02-28T06:14:07;36.40;;;17.40;;
54923;SDS011;40825;52.270;20.984;2023-02-28T06:16:36;39.00;;;16.70;;
54923;SDS011;40825;52.270;20.984;2023-02-28T06:19:02;45.40;;;16.00;;
54923;SDS011;40825;52.270;20.984;2023-02-28T06:21:28;41.60;;;16.10;;
54923;SDS011;40825;52.270;20.984;2023-02-28T06:23:55;36.50;;;16.70;;
54923;SDS011;40825;52.270;20.984;2023-02-28T06:26:22;28.60;;;13.50;;
54923;SDS011;40825;52.270;20.984;2023-02-28T06:28:48;35.70;;;15.40;;
54923;SDS011;40825;52.270;20.984;2023-02-28T06:31:15;35.20;;;14.20;;
54923;SDS011;40825;52.270;20.984;2023-02-28T06:33:42;30.80;;;13.70;;
54923;SDS011;40825;52.270;20.984;2023-02-28T06:36:09;32.80;;;14.10;;
54923;SDS011;40825;52.270;20.984;2023-02-28T06:38:37;33.80;;;14.50;;
54923;SDS011;40825;52.270;20.984;2023-02-28T06:41:03;32.50;;;14.30;;
54923;SDS011;40825;52.270;20.984;2023-02-28T06:43:32;29.10;;;14.50;;
54923;SDS011;40825;52.270;20.984;2023-02-28T06:46:01;28.70;;;13.10;;
54923;SDS011;40825;52.270;20.984;2023-02-28T06:48:29;22.40;;;11.60;;
54923;SDS011;40825;52.270;20.984;2023-02-28T06:51:01;26.10;;;11.70;;
54923;SDS011;40825;52.270;20.984;2023-02-28T06:53:38;25.30;;;11.50;;
54923;SDS011;40825;52.270;20.984;2023-02-28T06:56:05;20.30;;;10.20;;
54923;SDS011;40825;52.270;20.984;2023-02-28T06:58:32;22.80;;;10.50;;
54923;SDS011;40825;52.270;20.984;2023-02-28T07:00:58;18.00;;;9.20;;
54923;SDS011;40825;52.270;20.984;2023-02-28T07:03:23;20.80;;;9.70;;
54923;SDS011;40825;52.270;20.984;2023-02-28T07:05:49;16.10;;;8.90;;
54923;SDS011;40825;52.270;20.984;2023-02-28T07:08:14;17.60;;;9.10;;
54923;SDS011;40825;52.270;20.984;2023-02-28T07:10:40;16.30;;;8.40;;
54923;SDS011;40825;52.270;20.984;2023-02-28T07:13:07;19.60;;;8.50;;
54923;SDS011;40825;52.270;20.984;2023-02-28T07:15:34;15.80;;;7.80;;
54923;SDS011;40825;52.270;20.984;2023-02-28T07:18:01;16.90;;;7.50;;
54923;SDS011;40825;52.270;20.984;2023-02-28T07:20:28;12.90;;;6.90;;
54923;SDS011;40825;52.270;20.984;2023-02-28T07:22:54;12.30;;;6.70;;
54923;SDS011;40825;52.270;20.984;2023-02-28T07:25:22;15.70;;;7.10;;
54923;SDS011;40825;52.270;20.984;2023-02-28T07:27:48;13.80;;;7.00;;
54923;SDS011;40825;52.270;20.984;2023-02-28T07:30:15;14.10;;;6.50;;
54923;SDS011;40825;52.270;20.984;2023-02-28T07:32:40;14.80;;;6.90;;
54923;SDS011;40825;52.270;20.984;2023-02-28T07:35:06;15.30;;;7.00;;
54923;SDS011;40825;52.270;20.984;2023-02-28T07:37:32;15.60;;;7.60;;
54923;SDS011;40825;52.270;20.984;2023-02-28T07:40:05;11.90;;;6.00;;
54923;SDS011;40825;52.270;20.984;2023-02-28T07:42:34;11.50;;;5.20;;
54923;SDS011;40825;52.270;20.984;2023-02-28T07:45:01;10.30;;;4.80;;
54923;SDS011;40825;52.270;20.984;2023-02-28T07:47:28;9.50;;;4.30;;
54923;SDS011;40825;52.270;20.984;2023-02-28T07:49:55;8.70;;;3.80;;
54923;SDS011;40825;52.270;20.984;2023-02-28T07:52:20;10.10;;;4.60;;
54923;SDS011;40825;52.270;20.984;2023-02-28T07:54:46;9.30;;;3.80;;
54923;SDS011;40825;52.270;20.984;2023-02-28T07:57:11;7.20;;;3.30;;
54923;SDS011;40825;52.270;20.984;2023-02-28T07:59:37;7.90;;;3.40;;
54923;SDS011;40825;52.270;20.984;2023-02-28T08:02:02;9.00;;;3.50;;
54923;SDS011;40825;52.270;20.984;2023-02-28T08:04:31;8.90;;;3.90;;
54923;SDS011;40825;52.270;20.984;2023-02-28T08:06:57;9.30;;;3.90;;
54923;SDS011;40825;52.270;20.984;2023-02-28T08:09:23;9.60;;;5.00;;
54923;SDS011;40825;52.270;20.984;2023-02-28T08:11:49;9.90;;;4.60;;
54923;SDS011;40825;52.270;20.984;2023-02-28T08:14:15;11.20;;;4.20;;
54923;SDS011;40825;52.270;20.984;2023-02-28T08:16:40;9.90;;;4.20;;
54923;SDS011;40825;52.270;20.984;2023-02-28T08:19:08;7.90;;;4.30;;
54923;SDS011;40825;52.270;20.984;2023-02-28T08:21:34;10.20;;;4.50;;
54923;SDS011;40825;52.270;20.984;2023-02-28T08:23:59;10.90;;;5.50;;
54923;SDS011;40825;52.270;20.984;2023-02-28T08:26:25;11.60;;;4.80;;
54923;SDS011;40825;52.270;20.984;2023-02-28T08:28:50;10.20;;;5.10;;
54923;SDS011;40825;52.270;20.984;2023-02-28T08:31:17;9.40;;;4.10;;
54923;SDS011;40825;52.270;20.984;2023-02-28T08:33:43;9.90;;;4.80;;
54923;SDS011;40825;52.270;20.984;2023-02-28T08:36:10;9.30;;;4.40;;
54923;SDS011;40825;52.270;20.984;2023-02-28T08:38:36;10.60;;;5.30;;
54923;SDS011;40825;52.270;20.984;2023-02-28T08:41:04;9.40;;;4.40;;
54923;SDS011;40825;52.270;20.984;2023-02-28T08:43:32;10.20;;;4.70;;
54923;SDS011;40825;52.270;20.984;2023-02-28T08:45:59;9.00;;;4.50;;
54923;SDS011;40825;52.270;20.984;2023-02-28T08:48:26;9.70;;;4.80;;
54923;SDS011;40825;52.270;20.984;2023-02-28T08:50:57;10.10;;;4.70;;
54923;SDS011;40825;52.270;20.984;2023-02-28T08:53:24;13.00;;;5.90;;
54923;SDS011;40825;52.270;20.984;2023-02-28T08:56:11;9.70;;;5.40;;
54923;SDS011;40825;52.270;20.984;2023-02-28T08:58:41;10.20;;;4.80;;
54923;SDS011;40825;52.270;20.984;2023-02-28T09:01:07;9.20;;;4.90;;
54923;SDS011;40825;52.270;20.984;2023-02-28T09:03:47;10.10;;;5.50;;
54923;SDS011;40825;52.270;20.984;2023-02-28T09:06:14;10.00;;;5.40;;
54923;SDS011;40825;52.270;20.984;2023-02-28T09:08:41;10.80;;;5.60;;
54923;SDS011;40825;52.270;20.984;2023-02-28T09:11:07;11.90;;;5.80;;
54923;SDS011;40825;52.270;20.984;2023-02-28T09:13:33;9.90;;;5.40;;
54923;SDS011;40825;52.270;20.984;2023-02-28T09:16:00;12.20;;;5.80;;
54923;SDS011;40825;52.270;20.984;2023-02-28T09:18:27;8.90;;;5.00;;
54923;SDS011;40825;52.270;20.984;2023-02-28T09:20:54;9.20;;;5.30;;
54923;SDS011;40825;52.270;20.984;2023-02-28T09:23:19;10.40;;;6.20;;
54923;SDS011;40825;52.270;20.984;2023-02-28T09:25:46;9.30;;;4.80;;
54923;SDS011;40825;52.270;20.984;2023-02-28T09:28:13;11.90;;;5.80;;
54923;SDS011;40825;52.270;20.984;2023-02-28T09:30:46;12.30;;;5.60;;
54923;SDS011;40825;52.270;20.984;2023-02-28T09:33:14;10.60;;;5.00;;
54923;SDS011;40825;52.270;20.984;2023-02-28T09:35:40;12.60;;;6.30;;
54923;SDS011;40825;52.270;20.984;2023-02-28T09:38:06;12.20;;;6.20;;
54923;SDS011;40825;52.270;20.984;2023-02-28T09:40:35;11.40;;;6.10;;
54923;SDS011;40825;52.270;20.984;2023-02-28T09:43:04;10.20;;;5.50;;
54923;SDS011;40825;52.270;20.984;2023-02-28T09:45:40;12.10;;;6.00;;
54923;SDS011;40825;52.270;20.984;2023-02-28T09:48:14;10.50;;;4.80;;
54923;SDS011;40825;52.270;20.984;2023-02-28T09:50:45;11.00;;;5.20;;
54923;SDS011;40825;52.270;20.984;2023-02-28T09:53:30;11.10;;;6.10;;
54923;SDS011;40825;52.270;20.984;2023-02-28T09:56:09;10.60;;;5.30;;
54923;SDS011;40825;52.270;20.984;2023-02-28T10:01:21;12.40;;;6.20;;
54923;SDS011;40825;52.270;20.984;2023-02-28T10:04:08;11.00;;;6.20;;
54923;SDS011;40825;52.270;20.984;2023-02-28T10:06:39;12.70;;;6.30;;
54923;SDS011;40825;52.270;20.984;2023-02-28T10:09:19;10.90;;;5.50;;
54923;SDS011;40825;52.270;20.984;2023-02-28T10:11:50;12.10;;;5.20;;
54923;SDS011;40825;52.270;20.984;2023-02-28T10:16:46;10.90;;;5.60;;
54923;SDS011;40825;52.270;20.984;2023-02-28T10:22:25;10.30;;;5.10;;
54923;SDS011;40825;52.270;20.984;2023-02-28T10:24:57;10.40;;;5.10;;
54923;SDS011;40825;52.270;20.984;2023-02-28T10:27:29;14.00;;;5.80;;
54923;SDS011;40825;52.270;20.984;2023-02-28T10:29:57;11.90;;;5.40;;
54923;SDS011;40825;52.270;20.984;2023-02-28T10:32:35;9.90;;;5.10;;
54923;SDS011;40825;52.270;20.984;2023-02-28T10:35:10;11.60;;;6.00;;
54923;SDS011;40825;52.270;20.984;2023-02-28T10:37:45;10.10;;;5.20;;
54923;SDS011;40825;52.270;20.984;2023-02-28T10:42:55;11.60;;;5.60;;
54923;SDS011;40825;52.270;20.984;2023-02-28T10:45:22;11.00;;;5.30;;
54923;SDS011;40825;52.270;20.984;2023-02-28T10:47:59;9.70;;;5.60;;
54923;SDS011;40825;52.270;20.984;2023-02-28T10:50:52;11.40;;;5.40;;
54923;SDS011;40825;52.270;20.984;2023-02-28T10:56:15;10.60;;;5.80;;
54923;SDS011;40825;52.270;20.984;2023-02-28T10:58:44;11.00;;;5.70;;
54923;SDS011;40825;52.270;20.984;2023-02-28T11:03:55;13.40;;;5.70;;
54923;SDS011;40825;52.270;20.984;2023-02-28T11:06:23;12.10;;;6.40;;
54923;SDS011;40825;52.270;20.984;2023-02-28T11:09:01;12.40;;;6.00;;
54923;SDS011;40825;52.270;20.984;2023-02-28T11:11:40;11.40;;;5.50;;
54923;SDS011;40825;52.270;20.984;2023-02-28T11:14:23;10.10;;;4.90;;
54923;SDS011;40825;52.270;20.984;2023-02-28T11:16:51;10.20;;;5.60;;
54923;SDS011;40825;52.270;20.984;2023-02-28T11:19:28;11.40;;;6.20;;
54923;SDS011;40825;52.270;20.984;2023-02-28T11:22:06;11.60;;;6.10;;
54923;SDS011;40825;52.270;20.984;2023-02-28T11:27:23;13.50;;;5.60;;
54923;SDS011;40825;52.270;20.984;2023-02-28T11:29:50;11.30;;;5.80;;
54923;SDS011;40825;52.270;20.984;2023-02-28T11:32:20;12.20;;;7.00;;
54923;SDS011;40825;52.270;20.984;2023-02-28T11:34:47;10.60;;;5.50;;
54923;SDS011;40825;52.270;20.984;2023-02-28T11:37:27;14.20;;;7.10;;
54923;SDS011;40825;52.270;20.984;2023-02-28T11:39:53;10.40;;;5.70;;
54923;SDS011;40825;52.270;20.984;2023-02-28T11:42:35;15.40;;;7.10;;
54923;SDS011;40825;52.270;20.984;2023-02-28T11:54:17;12.60;;;6.40;;
54923;SDS011;40825;52.270;20.984;2023-02-28T11:56:47;16.70;;;6.80;;
54923;SDS011;40825;52.270;20.984;2023-02-28T11:59:43;12.20;;;7.10;;
54923;SDS011;40825;52.270;20.984;2023-02-28T12:08:07;12.90;;;7.00;;
54923;SDS011;40825;52.270;20.984;2023-02-28T12:10:53;13.70;;;7.10;;
54923;SDS011;40825;52.270;20.984;2023-02-28T12:16:36;13.20;;;5.60;;
54923;SDS011;40825;52.270;20.984;2023-02-28T12:19:30;15.00;;;6.80;;
54923;SDS011;40825;52.270;20.984;2023-02-28T12:22:22;13.40;;;6.80;;
54923;SDS011;40825;52.270;20.984;2023-02-28T12:27:29;18.10;;;8.40;;
54923;SDS011;40825;52.270;20.984;2023-02-28T12:30:00;14.60;;;7.20;;
54923;SDS011;40825;52.270;20.984;2023-02-28T12:32:34;13.00;;;6.80;;
54923;SDS011;40825;52.270;20.984;2023-02-28T12:35:06;12.50;;;7.20;;
54923;SDS011;40825;52.270;20.984;2023-02-28T12:37:38;15.30;;;7.40;;
54923;SDS011;40825;52.270;20.984;2023-02-28T12:40:22;11.90;;;6.50;;
54923;SDS011;40825;52.270;20.984;2023-02-28T12:42:57;13.40;;;6.40;;
54923;SDS011;40825;52.270;20.984;2023-02-28T12:48:08;15.60;;;6.90;;
54923;SDS011;40825;52.270;20.984;2023-02-28T12:50:39;13.90;;;7.60;;
54923;SDS011;40825;52.270;20.984;2023-02-28T13:09:25;11.30;;;6.00;;
54923;SDS011;40825;52.270;20.984;2023-02-28T13:11:53;14.10;;;7.20;;
54923;SDS011;40825;52.270;20.984;2023-02-28T13:14:25;13.00;;;6.50;;
54923;SDS011;40825;52.270;20.984;2023-02-28T13:19:30;11.90;;;6.20;;
54923;SDS011;40825;52.270;20.984;2023-02-28T13:44:06;13.00;;;6.80;;
54923;SDS011;40825;52.270;20.984;2023-02-28T13:46:34;11.50;;;6.00;;
54923;SDS011;40825;52.270;20.984;2023-02-28T13:49:17;13.30;;;6.90;;
54923;SDS011;40825;52.270;20.984;2023-02-28T14:00:02;12.60;;;5.80;;
54923;SDS011;40825;52.270;20.984;2023-02-28T14:03:05;14.00;;;6.00;;
54923;SDS011;40825;52.270;20.984;2023-02-28T14:05:46;14.70;;;6.50;;
54923;SDS011;40825;52.270;20.984;2023-02-28T14:08:16;13.60;;;6.30;;
54923;SDS011;40825;52.270;20.984;2023-02-28T14:10:50;13.60;;;6.40;;
54923;SDS011;40825;52.270;20.984;2023-02-28T14:13:44;14.10;;;6.70;;
54923;SDS011;40825;52.270;20.984;2023-02-28T14:16:13;11.40;;;6.10;;
54923;SDS011;40825;52.270;20.984;2023-02-28T14:18:42;12.80;;;5.90;;
54923;SDS011;40825;52.270;20.984;2023-02-28T14:23:57;8.80;;;4.30;;
54923;SDS011;40825;52.270;20.984;2023-02-28T14:38:05;10.50;;;4.60;;
54923;SDS011;40825;52.270;20.984;2023-02-28T14:40:37;11.80;;;5.90;;
54923;SDS011;40825;52.270;20.984;2023-02-28T14:43:05;13.00;;;6.30;;
54923;SDS011;40825;52.270;20.984;2023-02-28T14:45:48;12.80;;;5.80;;
54923;SDS011;40825;52.270;20.984;2023-02-28T14:48:16;12.90;;;5.70;;
54923;SDS011;40825;52.270;20.984;2023-02-28T14:50:54;10.90;;;5.30;;
54923;SDS011;40825;52.270;20.984;2023-02-28T14:53:23;12.70;;;5.70;;
54923;SDS011;40825;52.270;20.984;2023-02-28T14:55:52;11.70;;;5.70;;
54923;SDS011;40825;52.270;20.984;2023-02-28T14:58:23;13.00;;;5.70;;
54923;SDS011;40825;52.270;20.984;2023-02-28T15:00:54;12.70;;;5.90;;
54923;SDS011;40825;52.270;20.984;2023-02-28T15:03:29;13.70;;;7.00;;
54923;SDS011;40825;52.270;20.984;2023-02-28T15:06:00;13.20;;;6.00;;
54923;SDS011;40825;52.270;20.984;2023-02-28T15:08:28;13.00;;;6.10;;
54923;SDS011;40825;52.270;20.984;2023-02-28T15:13:36;13.60;;;5.70;;
54923;SDS011;40825;52.270;20.984;2023-02-28T15:16:16;12.60;;;5.00;;
54923;SDS011;40825;52.270;20.984;2023-02-28T15:18:59;12.10;;;6.40;;
54923;SDS011;40825;52.270;20.984;2023-02-28T15:23:55;13.30;;;5.70;;
54923;SDS011;40825;52.270;20.984;2023-02-28T15:26:29;12.20;;;5.80;;
54923;SDS011;40825;52.270;20.984;2023-02-28T15:29:03;13.30;;;5.90;;
54923;SDS011;40825;52.270;20.984;2023-02-28T15:31:33;16.50;;;7.80;;
54923;SDS011;40825;52.270;20.984;2023-02-28T15:34:05;13.10;;;6.20;;
54923;SDS011;40825;52.270;20.984;2023-02-28T15:36:33;13.40;;;6.00;;
54923;SDS011;40825;52.270;20.984;2023-02-28T15:39:03;13.10;;;6.30;;
54923;SDS011;40825;52.270;20.984;2023-02-28T15:41:45;14.20;;;7.40;;
54923;SDS011;40825;52.270;20.984;2023-02-28T15:44:44;16.00;;;7.40;;
54923;SDS011;40825;52.270;20.984;2023-02-28T15:47:04;13.70;;;7.10;;
54923;SDS011;40825;52.270;20.984;2023-02-28T15:50:08;12.60;;;6.60;;
54923;SDS011;40825;52.270;20.984;2023-02-28T15:52:29;14.30;;;6.70;;
54923;SDS011;40825;52.270;20.984;2023-02-28T15:55:25;17.70;;;7.70;;
54923;SDS011;40825;52.270;20.984;2023-02-28T16:00:20;15.60;;;7.40;;
54923;SDS011;40825;52.270;20.984;2023-02-28T16:02:48;13.50;;;6.30;;
54923;SDS011;40825;52.270;20.984;2023-02-28T16:05:18;12.50;;;6.60;;
54923;SDS011;40825;52.270;20.984;2023-02-28T16:07:53;13.50;;;6.90;;
54923;SDS011;40825;52.270;20.984;2023-02-28T16:10:20;18.50;;;8.30;;
54923;SDS011;40825;52.270;20.984;2023-02-28T16:12:50;15.70;;;7.10;;
54923;SDS011;40825;52.270;20.984;2023-02-28T16:17:56;15.60;;;8.00;;
54923;SDS011;40825;52.270;20.984;2023-02-28T16:20:26;16.80;;;8.10;;
54923;SDS011;40825;52.270;20.984;2023-02-28T16:22:54;17.50;;;8.10;;
54923;SDS011;40825;52.270;20.984;2023-02-28T16:25:29;18.00;;;7.90;;
54923;SDS011;40825;52.270;20.984;2023-02-28T16:28:00;18.70;;;8.10;;
54923;SDS011;40825;52.270;20.984;2023-02-28T16:30:26;16.50;;;8.70;;
54923;SDS011;40825;52.270;20.984;2023-02-28T16:32:56;18.30;;;8.50;;
54923;SDS011;40825;52.270;20.984;2023-02-28T16:35:22;17.60;;;8.20;;
54923;SDS011;40825;52.270;20.984;2023-02-28T16:37:50;15.70;;;8.30;;
54923;SDS011;40825;52.270;20.984;2023-02-28T16:40:17;19.10;;;8.80;;
54923;SDS011;40825;52.270;20.984;2023-02-28T16:42:46;20.00;;;9.30;;
54923;SDS011;40825;52.270;20.984;2023-02-28T16:45:20;16.60;;;8.60;;
54923;SDS011;40825;52.270;20.984;2023-02-28T16:47:48;16.40;;;8.70;;
54923;SDS011;40825;52.270;20.984;2023-02-28T16:50:17;19.70;;;9.30;;
54923;SDS011;40825;52.270;20.984;2023-02-28T16:52:45;18.90;;;9.20;;
54923;SDS011;40825;52.270;20.984;2023-02-28T16:55:11;19.10;;;8.50;;
54923;SDS011;40825;52.270;20.984;2023-02-28T16:57:38;18.30;;;10.10;;
54923;SDS011;40825;52.270;20.984;2023-02-28T17:00:05;15.80;;;8.30;;
54923;SDS011;40825;52.270;20.984;2023-02-28T17:02:33;16.30;;;7.90;;
54923;SDS011;40825;52.270;20.984;2023-02-28T17:04:59;16.70;;;8.00;;
54923;SDS011;40825;52.270;20.984;2023-02-28T17:07:25;19.50;;;10.10;;
54923;SDS011;40825;52.270;20.984;2023-02-28T17:09:51;22.20;;;10.30;;
54923;SDS011;40825;52.270;20.984;2023-02-28T17:12:16;20.30;;;9.90;;